Plainfield, NJ (07062)

8:49 PM EST on December 28, 2014 (GMT -0500)
Fire Station #161 | Change Station
CLOSE
Current Station
Personal Weather Station
Location: Scotch Plains, NJ
Elevation: 144 ft
Nearby Weather Stations

Elev 144 ft 40.65 °N, 74.40 °W | Updated 2 seconds ago

Overcast
Overcast
46.2 °F
Feels Like 46 °F
N
0.0
Wind Variable Wind from North
Gusts 0.0 mph

Today
High -- | Low -- °F
--% Chance of Precip.
Yesterday
High -- | Low -- °F
Precip. -- in
7:20 AM 4:37 PM
First Quarter, 53% visible
Pressure 30.03 in
Visibility 10.0 miles
Clouds Mostly Cloudy 3200 ft
Overcast 4100 ft
Windchill 46 °F
Dew Point 36 °F
Humidity 66%
Rainfall 0.09 in
Snow Depth Not available.
UV 0.0 out of 12
Pollen .10 out of 12
Air Quality Not available.
Flu Activity Not available.
METAR KLDJ 290135Z AUTO 33005KT 10SM BKN032 OVC041 11/04 A3003 RMK AO2 T01050036

More Conditions Fewer Conditions

Pressure 30.03 in
Visibility 10.0 miles
Clouds Mostly Cloudy 3200 ft
Overcast 4100 ft
Windchill 46 °F
Dew Point 36 °F
Humidity 66%
Rainfall 0.09 in
Snow Depth Not available.
UV 0.0 out of 12
Pollen .10 out of 12
Air Quality Not available.
Flu Activity Not available.
METAR KLDJ 290135Z AUTO 33005KT 10SM BKN032 OVC041 11/04 A3003 RMK AO2 T01050036

More Conditions Fewer Conditions

10-Day Weather Forecast

Almanac

Astronomy

Dec. 28, 2014 Rise Set
Actual Time
Civil Twilight
Nautical Twilight
Astronomical Twilight
Moon
Length of Visible Light
Length of Day
Tomorrow will be .
, % of the Moon is Illuminated

Today's Extremes

State Highs State Lows

Community

WunderPhotos

Upload Photos

1,781,489 photos uploaded!

WunderBlogs® & News

Nearby

Air Quality

  Air Quality AQ Index Pollutant
Not available.

Snow Depth

Station Depth Elevation

Earthquake Activity

City Distance Mag. Time & Date
Minimum magnitude displayed is 2.5.

Coastal Water Temperatures

Place Temperature

Nearby Weather Stations